Qualicum Beach, Canada
Current Conditions -  °F | °C
As of 11:00 PM on Friday 28 Nov 2014 (Local Time) from CYQQ Reporting Station
Broken Clouds Broken Clouds  
Wind Chill: 18°   Ceiling: 6000
Heat Index: 30°   Visibility: 20mi
Dew Point: 16°   Wind: 17mph
Humidity: 55%   Direction: 330°NNW
Pressure: 29.54"   Gusts: 24mph
Location:  49.35°N, 124.44°W
Report Text: CYQQ 290700Z 33015G21KT 20SM BKN060 BKN090 M01/M09 A2954 RMK SC5AC2 SLP003
Loading
Personal Weather Stations






























Interactive Weather Map New forecast layout! Learn more

10-Day Weather Forecast

Advertisements
Track Severe Weather on mobile